UAE7TR OMDB-EGKK
Flight info
| Callsign | UAE7TR |
|---|---|
| Flight time | N/A |
| Altitude | 38000 |
| Route | RIDAP M557 TUMAK L602 GADSI M860 SEPTU DCT VUSEB/N0490F400 M860 NINVA UM860 ODALI UL852 NEGEM L852 KOMAN DCT TEGRI DCT BEGLA DCT DEXIT DCT INBED DCT BOMBI DCT ADKUV DCT KENUM DCT DENUT L610 TEBRA |
| Aircraft | A359/H-SDE2E3GHIJ3J4J5LM1ORWXY/LB1D1 |
Departure
| Time | 2026-05-04 09:31 |
|---|---|
| Airport | Dubai International Airport (OMDB) |
Arrival
| Time | N/A |
|---|---|
| Airport | London Gatwick Airport (EGKK) |
| Time | Latitude | Longitude | Altitude | Speed | Heading |
|---|---|---|---|---|---|
| 2026-05-04 09:07 | 25.24912 | 55.35826 | 28 ft | 0 kts | 34° |
| 2026-05-04 09:18 | 25.24912 | 55.35825 | 56 ft | 1 kts | 34° |
| 2026-05-04 09:18 | 25.24893 | 55.35812 | 28 ft | 4 kts | 28° |
| 2026-05-04 09:19 | 25.24871 | 55.35799 | 26 ft | 2 kts | 30° |
| 2026-05-04 09:19 | 25.24858 | 55.35790 | 25 ft | 4 kts | 58° |
| 2026-05-04 09:19 | 25.24857 | 55.35767 | 24 ft | 4 kts | 120° |
| 2026-05-04 09:19 | 25.24869 | 55.35747 | 25 ft | 0 kts | 124° |
| 2026-05-04 09:23 | 25.24854 | 55.35772 | 28 ft | 11 kts | 124° |
| 2026-05-04 09:25 | 25.24485 | 55.36654 | 28 ft | 7 kts | 47° |
| 2026-05-04 09:25 | 25.24530 | 55.36693 | 28 ft | 10 kts | 35° |
| 2026-05-04 09:26 | 25.24640 | 55.36768 | 28 ft | 25 kts | 30° |
| 2026-05-04 09:26 | 25.24729 | 55.36893 | 28 ft | 20 kts | 107° |
| 2026-05-04 09:26 | 25.24625 | 55.37072 | 28 ft | 36 kts | 122° |
| 2026-05-04 09:26 | 25.24476 | 55.37343 | 28 ft | 38 kts | 120° |
| 2026-05-04 09:27 | 25.24377 | 55.37519 | 28 ft | 22 kts | 121° |
| 2026-05-04 09:27 | 25.24312 | 55.37637 | 28 ft | 17 kts | 121° |
| 2026-05-04 09:27 | 25.24275 | 55.37746 | 28 ft | 10 kts | 86° |
| 2026-05-04 09:27 | 25.24305 | 55.37794 | 28 ft | 8 kts | 40° |
| 2026-05-04 09:28 | 25.24351 | 55.37829 | 28 ft | 8 kts | 34° |
| 2026-05-04 09:28 | 25.24418 | 55.37882 | 28 ft | 19 kts | 36° |
| 2026-05-04 09:28 | 25.24548 | 55.37980 | 28 ft | 22 kts | 34° |
| 2026-05-04 09:28 | 25.24646 | 55.38051 | 28 ft | 7 kts | 31° |
| 2026-05-04 09:29 | 25.24649 | 55.38053 | 28 ft | 0 kts | 31° |
| 2026-05-04 09:29 | 25.24656 | 55.38058 | 28 ft | 6 kts | 31° |
| 2026-05-04 09:29 | 25.24734 | 55.38092 | 28 ft | 16 kts | 2° |
| 2026-05-04 09:30 | 25.24809 | 55.38016 | 28 ft | 13 kts | 301° |
| 2026-05-04 09:30 | 25.24823 | 55.37990 | 28 ft | 14 kts | 300° |
| 2026-05-04 09:30 | 25.24984 | 55.37702 | 28 ft | 76 kts | 302° |
| 2026-05-04 09:30 | 25.25363 | 55.37020 | 29 ft | 131 kts | 301° |
| 2026-05-04 09:31 | 25.25921 | 55.36013 | 103 ft | 170 kts | 298° |
| 2026-05-04 09:31 | 25.26512 | 55.34907 | 742 ft | 169 kts | 300° |
| 2026-05-04 09:31 | 25.27130 | 55.33790 | 1362 ft | 170 kts | 300° |
| 2026-05-04 09:31 | 25.27806 | 55.32625 | 1610 ft | 191 kts | 301° |
| 2026-05-04 09:32 | 25.28551 | 55.31295 | 1816 ft | 215 kts | 301° |
| 2026-05-04 09:32 | 25.29354 | 55.29858 | 2346 ft | 223 kts | 301° |
| 2026-05-04 09:34 | 25.35632 | 55.19597 | 6630 ft | 241 kts | 291° |
| 2026-05-04 09:34 | 25.35871 | 55.17725 | 7027 ft | 255 kts | 272° |
| 2026-05-04 09:34 | 25.35814 | 55.15690 | 7318 ft | 272 kts | 270° |
| 2026-05-04 09:34 | 25.35711 | 55.13575 | 7803 ft | 278 kts | 269° |
| 2026-05-04 09:35 | 25.35613 | 55.11429 | 8398 ft | 281 kts | 270° |
| 2026-05-04 09:35 | 25.35522 | 55.09263 | 9007 ft | 283 kts | 270° |
| 2026-05-04 09:35 | 25.35437 | 55.07076 | 9632 ft | 285 kts | 270° |
| 2026-05-04 09:35 | 25.35354 | 55.04876 | 10177 ft | 290 kts | 270° |